Terminal Aerodrome Forecast
Issued by NWS

Home | Current Version | Previous Version | Text Only | Print | Product List | Glossary On
Versions: 1 2 3 4 5 6 7 8 9 10 11 12 13 14 15 16 17 18 19
963
FTUS46 KSEW 181732
TAFBFI
TAF
KBFI 181732Z 1818/1918 16013G20KT P6SM -RA BKN040 OVC050
     FM182100 18020G30KT P6SM -RA BKN025 OVC035
     FM190300 19012G22KT 4SM RA BR BKN015 OVC020
     FM190900 18010KT 4SM -RA BKN015 OVC020
     FM191400 18008KT P6SM -RA BKN020 OVC040=

USA.gov is the U.S. government's official web portal to all federal, state and local government web resources and services.